sensor_id;sensor_type;location;lat;lon;timestamp;pressure;altitude;pressure_sealevel;temperature
58929;BMP180;44713;53.378;10.022;2022-10-16T00:01:16;100652.00;;;14.30
58929;BMP180;44713;53.378;10.022;2022-10-16T00:03:43;100662.00;;;14.30
58929;BMP180;44713;53.378;10.022;2022-10-16T00:06:09;100659.00;;;14.20
58929;BMP180;44713;53.378;10.022;2022-10-16T00:08:35;100649.00;;;14.20
58929;BMP180;44713;53.378;10.022;2022-10-16T00:11:04;100654.00;;;14.20
58929;BMP180;44713;53.378;10.022;2022-10-16T00:13:30;100656.00;;;14.10
58929;BMP180;44713;53.378;10.022;2022-10-16T00:15:57;100663.00;;;14.10
58929;BMP180;44713;53.378;10.022;2022-10-16T00:18:23;100662.00;;;14.10
58929;BMP180;44713;53.378;10.022;2022-10-16T00:20:49;100663.00;;;14.00
58929;BMP180;44713;53.378;10.022;2022-10-16T00:23:14;100666.00;;;14.00
58929;BMP180;44713;53.378;10.022;2022-10-16T00:25:40;100682.00;;;14.00
58929;BMP180;44713;53.378;10.022;2022-10-16T00:28:05;100676.00;;;14.00
58929;BMP180;44713;53.378;10.022;2022-10-16T00:30:30;100674.00;;;13.90
58929;BMP180;44713;53.378;10.022;2022-10-16T00:32:56;100674.00;;;13.90
58929;BMP180;44713;53.378;10.022;2022-10-16T00:35:21;100675.00;;;13.90
58929;BMP180;44713;53.378;10.022;2022-10-16T00:37:46;100680.00;;;13.90
58929;BMP180;44713;53.378;10.022;2022-10-16T00:40:12;100671.00;;;13.80
58929;BMP180;44713;53.378;10.022;2022-10-16T00:42:38;100680.00;;;13.70
58929;BMP180;44713;53.378;10.022;2022-10-16T00:45:04;100684.00;;;13.70
58929;BMP180;44713;53.378;10.022;2022-10-16T00:47:34;100680.00;;;13.70
58929;BMP180;44713;53.378;10.022;2022-10-16T00:52:46;100680.00;;;13.70
58929;BMP180;44713;53.378;10.022;2022-10-16T00:55:12;100693.00;;;13.60
58929;BMP180;44713;53.378;10.022;2022-10-16T00:57:38;100685.00;;;13.60
58929;BMP180;44713;53.378;10.022;2022-10-16T01:00:07;100681.00;;;13.60
58929;BMP180;44713;53.378;10.022;2022-10-16T01:02:32;100678.00;;;13.50
58929;BMP180;44713;53.378;10.022;2022-10-16T01:04:58;100674.00;;;13.50
58929;BMP180;44713;53.378;10.022;2022-10-16T01:07:48;100682.00;;;13.50
58929;BMP180;44713;53.378;10.022;2022-10-16T01:10:27;100694.00;;;13.50
58929;BMP180;44713;53.378;10.022;2022-10-16T01:13:17;100698.00;;;13.40
58929;BMP180;44713;53.378;10.022;2022-10-16T01:16:07;100697.00;;;13.40
58929;BMP180;44713;53.378;10.022;2022-10-16T01:18:37;100699.00;;;13.40
58929;BMP180;44713;53.378;10.022;2022-10-16T01:21:06;100701.00;;;13.30
58929;BMP180;44713;53.378;10.022;2022-10-16T01:23:48;100702.00;;;13.30
58929;BMP180;44713;53.378;10.022;2022-10-16T01:29:07;100700.00;;;13.30
58929;BMP180;44713;53.378;10.022;2022-10-16T01:31:36;100706.00;;;13.20
58929;BMP180;44713;53.378;10.022;2022-10-16T01:34:13;100712.00;;;13.30
58929;BMP180;44713;53.378;10.022;2022-10-16T01:36:51;100709.00;;;13.30
58929;BMP180;44713;53.378;10.022;2022-10-16T01:39:20;100706.00;;;13.20
58929;BMP180;44713;53.378;10.022;2022-10-16T01:41:54;100702.00;;;13.20
58929;BMP180;44713;53.378;10.022;2022-10-16T01:44:26;100699.00;;;13.20
58929;BMP180;44713;53.378;10.022;2022-10-16T01:46:54;100706.00;;;13.10
58929;BMP180;44713;53.378;10.022;2022-10-16T01:49:21;100705.00;;;13.10
58929;BMP180;44713;53.378;10.022;2022-10-16T01:51:50;100709.00;;;13.10
58929;BMP180;44713;53.378;10.022;2022-10-16T01:54:18;100712.00;;;13.00
58929;BMP180;44713;53.378;10.022;2022-10-16T01:56:45;100711.00;;;13.00
58929;BMP180;44713;53.378;10.022;2022-10-16T01:59:13;100714.00;;;13.00
58929;BMP180;44713;53.378;10.022;2022-10-16T02:01:42;100712.00;;;13.00
58929;BMP180;44713;53.378;10.022;2022-10-16T02:04:19;100710.00;;;12.90
58929;BMP180;44713;53.378;10.022;2022-10-16T02:06:45;100716.00;;;12.90
58929;BMP180;44713;53.378;10.022;2022-10-16T02:09:11;100716.00;;;13.00
58929;BMP180;44713;53.378;10.022;2022-10-16T02:11:36;100714.00;;;12.90
58929;BMP180;44713;53.378;10.022;2022-10-16T02:14:04;100712.00;;;12.90
58929;BMP180;44713;53.378;10.022;2022-10-16T02:19:00;100715.00;;;12.90
58929;BMP180;44713;53.378;10.022;2022-10-16T02:21:29;100708.00;;;12.80
58929;BMP180;44713;53.378;10.022;2022-10-16T02:24:24;100707.00;;;12.80
58929;BMP180;44713;53.378;10.022;2022-10-16T02:27:05;100713.00;;;12.80
58929;BMP180;44713;53.378;10.022;2022-10-16T02:29:38;100711.00;;;12.80
58929;BMP180;44713;53.378;10.022;2022-10-16T02:32:07;100711.00;;;12.80
58929;BMP180;44713;53.378;10.022;2022-10-16T02:34:33;100707.00;;;12.80
58929;BMP180;44713;53.378;10.022;2022-10-16T02:37:01;100702.00;;;12.70
58929;BMP180;44713;53.378;10.022;2022-10-16T02:39:28;100704.00;;;12.70
58929;BMP180;44713;53.378;10.022;2022-10-16T02:41:54;100711.00;;;12.70
58929;BMP180;44713;53.378;10.022;2022-10-16T02:44:19;100712.00;;;12.70
58929;BMP180;44713;53.378;10.022;2022-10-16T02:46:44;100696.00;;;12.60
58929;BMP180;44713;53.378;10.022;2022-10-16T02:49:10;100694.00;;;12.70
58929;BMP180;44713;53.378;10.022;2022-10-16T02:51:35;100695.00;;;12.60
58929;BMP180;44713;53.378;10.022;2022-10-16T02:54:01;100711.00;;;12.60
58929;BMP180;44713;53.378;10.022;2022-10-16T02:56:27;100703.00;;;12.60
58929;BMP180;44713;53.378;10.022;2022-10-16T02:58:52;100706.00;;;12.60
58929;BMP180;44713;53.378;10.022;2022-10-16T03:01:17;100709.00;;;12.60
58929;BMP180;44713;53.378;10.022;2022-10-16T03:03:43;100702.00;;;12.50
58929;BMP180;44713;53.378;10.022;2022-10-16T03:06:08;100711.00;;;12.50
58929;BMP180;44713;53.378;10.022;2022-10-16T03:08:33;100703.00;;;12.50
58929;BMP180;44713;53.378;10.022;2022-10-16T03:10:59;100701.00;;;12.50
58929;BMP180;44713;53.378;10.022;2022-10-16T03:13:27;100702.00;;;12.40
58929;BMP180;44713;53.378;10.022;2022-10-16T03:15:52;100699.00;;;12.40
58929;BMP180;44713;53.378;10.022;2022-10-16T03:18:18;100710.00;;;12.40
58929;BMP180;44713;53.378;10.022;2022-10-16T03:20:43;100715.00;;;12.40
58929;BMP180;44713;53.378;10.022;2022-10-16T03:23:08;100707.00;;;12.40
58929;BMP180;44713;53.378;10.022;2022-10-16T03:25:34;100704.00;;;12.40
58929;BMP180;44713;53.378;10.022;2022-10-16T03:27:59;100699.00;;;12.40
58929;BMP180;44713;53.378;10.022;2022-10-16T03:30:25;100707.00;;;12.40
58929;BMP180;44713;53.378;10.022;2022-10-16T03:32:50;100708.00;;;12.30
58929;BMP180;44713;53.378;10.022;2022-10-16T03:35:20;100706.00;;;12.30
58929;BMP180;44713;53.378;10.022;2022-10-16T03:37:45;100709.00;;;12.30
58929;BMP180;44713;53.378;10.022;2022-10-16T03:40:11;100713.00;;;12.30
58929;BMP180;44713;53.378;10.022;2022-10-16T03:42:36;100719.00;;;12.30
58929;BMP180;44713;53.378;10.022;2022-10-16T03:45:01;100719.00;;;12.30
58929;BMP180;44713;53.378;10.022;2022-10-16T03:47:27;100723.00;;;12.30
58929;BMP180;44713;53.378;10.022;2022-10-16T03:49:52;100723.00;;;12.30
58929;BMP180;44713;53.378;10.022;2022-10-16T03:52:17;100722.00;;;12.30
58929;BMP180;44713;53.378;10.022;2022-10-16T03:54:43;100718.00;;;12.30
58929;BMP180;44713;53.378;10.022;2022-10-16T03:57:08;100714.00;;;12.30
58929;BMP180;44713;53.378;10.022;2022-10-16T03:59:33;100725.00;;;12.30
58929;BMP180;44713;53.378;10.022;2022-10-16T04:01:59;100730.00;;;12.30
58929;BMP180;44713;53.378;10.022;2022-10-16T04:04:24;100727.00;;;12.20
58929;BMP180;44713;53.378;10.022;2022-10-16T04:06:50;100733.00;;;12.30
58929;BMP180;44713;53.378;10.022;2022-10-16T04:09:16;100731.00;;;12.20
58929;BMP180;44713;53.378;10.022;2022-10-16T04:11:41;100743.00;;;12.20
58929;BMP180;44713;53.378;10.022;2022-10-16T04:14:06;100744.00;;;12.20
58929;BMP180;44713;53.378;10.022;2022-10-16T04:16:32;100745.00;;;12.10
58929;BMP180;44713;53.378;10.022;2022-10-16T04:18:57;100752.00;;;12.20
58929;BMP180;44713;53.378;10.022;2022-10-16T04:21:23;100749.00;;;12.20
58929;BMP180;44713;53.378;10.022;2022-10-16T04:23:48;100753.00;;;12.20
58929;BMP180;44713;53.378;10.022;2022-10-16T04:26:14;100748.00;;;12.10
58929;BMP180;44713;53.378;10.022;2022-10-16T04:28:39;100755.00;;;12.10
58929;BMP180;44713;53.378;10.022;2022-10-16T04:31:05;100759.00;;;12.10
58929;BMP180;44713;53.378;10.022;2022-10-16T04:33:31;100757.00;;;12.20
58929;BMP180;44713;53.378;10.022;2022-10-16T04:35:58;100767.00;;;12.10
58929;BMP180;44713;53.378;10.022;2022-10-16T04:38:23;100768.00;;;12.10
58929;BMP180;44713;53.378;10.022;2022-10-16T04:40:49;100761.00;;;12.10
58929;BMP180;44713;53.378;10.022;2022-10-16T04:43:14;100775.00;;;12.00
58929;BMP180;44713;53.378;10.022;2022-10-16T04:45:39;100779.00;;;12.10
58929;BMP180;44713;53.378;10.022;2022-10-16T04:48:05;100777.00;;;12.00
58929;BMP180;44713;53.378;10.022;2022-10-16T04:50:30;100776.00;;;12.00
58929;BMP180;44713;53.378;10.022;2022-10-16T04:53:05;100779.00;;;12.00
58929;BMP180;44713;53.378;10.022;2022-10-16T04:55:31;100778.00;;;12.00
58929;BMP180;44713;53.378;10.022;2022-10-16T04:57:56;100773.00;;;12.00
58929;BMP180;44713;53.378;10.022;2022-10-16T05:00:22;100765.00;;;12.00
58929;BMP180;44713;53.378;10.022;2022-10-16T05:02:49;100770.00;;;12.00
58929;BMP180;44713;53.378;10.022;2022-10-16T05:05:15;100777.00;;;12.00
58929;BMP180;44713;53.378;10.022;2022-10-16T05:07:41;100783.00;;;11.90
58929;BMP180;44713;53.378;10.022;2022-10-16T05:10:06;100782.00;;;11.90
58929;BMP180;44713;53.378;10.022;2022-10-16T05:12:32;100791.00;;;12.00
58929;BMP180;44713;53.378;10.022;2022-10-16T05:14:57;100787.00;;;12.00
58929;BMP180;44713;53.378;10.022;2022-10-16T05:17:24;100792.00;;;12.00
58929;BMP180;44713;53.378;10.022;2022-10-16T05:19:50;100798.00;;;11.90
58929;BMP180;44713;53.378;10.022;2022-10-16T05:22:15;100789.00;;;12.00
58929;BMP180;44713;53.378;10.022;2022-10-16T05:24:41;100797.00;;;11.90
58929;BMP180;44713;53.378;10.022;2022-10-16T05:27:06;100801.00;;;11.90
58929;BMP180;44713;53.378;10.022;2022-10-16T05:29:32;100800.00;;;11.90
58929;BMP180;44713;53.378;10.022;2022-10-16T05:31:57;100795.00;;;11.90
58929;BMP180;44713;53.378;10.022;2022-10-16T05:34:22;100810.00;;;11.80
58929;BMP180;44713;53.378;10.022;2022-10-16T05:36:48;100803.00;;;11.90
58929;BMP180;44713;53.378;10.022;2022-10-16T05:39:14;100807.00;;;11.90
58929;BMP180;44713;53.378;10.022;2022-10-16T05:41:40;100807.00;;;11.90
58929;BMP180;44713;53.378;10.022;2022-10-16T05:44:06;100805.00;;;11.90
58929;BMP180;44713;53.378;10.022;2022-10-16T05:46:32;100803.00;;;11.80
58929;BMP180;44713;53.378;10.022;2022-10-16T05:48:58;100799.00;;;11.80
58929;BMP180;44713;53.378;10.022;2022-10-16T05:51:23;100803.00;;;11.90
58929;BMP180;44713;53.378;10.022;2022-10-16T05:53:49;100801.00;;;11.80
58929;BMP180;44713;53.378;10.022;2022-10-16T05:56:14;100810.00;;;11.80
58929;BMP180;44713;53.378;10.022;2022-10-16T05:58:40;100806.00;;;11.80
58929;BMP180;44713;53.378;10.022;2022-10-16T06:01:10;100811.00;;;11.80
58929;BMP180;44713;53.378;10.022;2022-10-16T06:03:35;100814.00;;;11.70
58929;BMP180;44713;53.378;10.022;2022-10-16T06:06:14;100824.00;;;11.70
58929;BMP180;44713;53.378;10.022;2022-10-16T06:08:40;100832.00;;;11.70
58929;BMP180;44713;53.378;10.022;2022-10-16T06:11:09;100831.00;;;11.70
58929;BMP180;44713;53.378;10.022;2022-10-16T06:13:35;100828.00;;;11.70
58929;BMP180;44713;53.378;10.022;2022-10-16T06:16:01;100825.00;;;11.70
58929;BMP180;44713;53.378;10.022;2022-10-16T06:18:27;100830.00;;;11.60
58929;BMP180;44713;53.378;10.022;2022-10-16T06:20:53;100829.00;;;11.70
58929;BMP180;44713;53.378;10.022;2022-10-16T06:23:19;100823.00;;;11.70
58929;BMP180;44713;53.378;10.022;2022-10-16T06:25:44;100827.00;;;11.70
58929;BMP180;44713;53.378;10.022;2022-10-16T06:28:10;100839.00;;;11.70
58929;BMP180;44713;53.378;10.022;2022-10-16T06:30:35;100839.00;;;11.70
58929;BMP180;44713;53.378;10.022;2022-10-16T06:33:00;100851.00;;;11.70
58929;BMP180;44713;53.378;10.022;2022-10-16T06:35:26;100852.00;;;11.70
58929;BMP180;44713;53.378;10.022;2022-10-16T06:37:52;100846.00;;;11.70
58929;BMP180;44713;53.378;10.022;2022-10-16T06:40:18;100847.00;;;11.80
58929;BMP180;44713;53.378;10.022;2022-10-16T06:42:43;100850.00;;;11.80
58929;BMP180;44713;53.378;10.022;2022-10-16T06:45:09;100852.00;;;11.80
58929;BMP180;44713;53.378;10.022;2022-10-16T06:47:35;100871.00;;;11.80
58929;BMP180;44713;53.378;10.022;2022-10-16T06:50:00;100853.00;;;11.90
58929;BMP180;44713;53.378;10.022;2022-10-16T06:52:28;100861.00;;;11.90
58929;BMP180;44713;53.378;10.022;2022-10-16T06:54:53;100865.00;;;11.90
58929;BMP180;44713;53.378;10.022;2022-10-16T06:57:18;100863.00;;;11.90
58929;BMP180;44713;53.378;10.022;2022-10-16T06:59:44;100873.00;;;12.00
58929;BMP180;44713;53.378;10.022;2022-10-16T07:02:09;100871.00;;;12.00
58929;BMP180;44713;53.378;10.022;2022-10-16T07:04:35;100880.00;;;12.10
58929;BMP180;44713;53.378;10.022;2022-10-16T07:07:01;100885.00;;;12.10
58929;BMP180;44713;53.378;10.022;2022-10-16T07:09:26;100884.00;;;12.20
58929;BMP180;44713;53.378;10.022;2022-10-16T07:11:51;100887.00;;;12.20
58929;BMP180;44713;53.378;10.022;2022-10-16T07:14:18;100891.00;;;12.30
58929;BMP180;44713;53.378;10.022;2022-10-16T07:16:44;100895.00;;;12.30
58929;BMP180;44713;53.378;10.022;2022-10-16T07:19:09;100894.00;;;12.40
58929;BMP180;44713;53.378;10.022;2022-10-16T07:21:37;100895.00;;;12.60
58929;BMP180;44713;53.378;10.022;2022-10-16T07:24:05;100899.00;;;12.60
58929;BMP180;44713;53.378;10.022;2022-10-16T07:26:33;100904.00;;;12.70
58929;BMP180;44713;53.378;10.022;2022-10-16T07:28:58;100918.00;;;12.70
58929;BMP180;44713;53.378;10.022;2022-10-16T07:31:24;100919.00;;;12.90
58929;BMP180;44713;53.378;10.022;2022-10-16T07:33:50;100918.00;;;13.00
58929;BMP180;44713;53.378;10.022;2022-10-16T07:36:18;100929.00;;;13.10
58929;BMP180;44713;53.378;10.022;2022-10-16T07:38:44;100943.00;;;13.20
58929;BMP180;44713;53.378;10.022;2022-10-16T07:41:12;100935.00;;;13.20
58929;BMP180;44713;53.378;10.022;2022-10-16T07:43:39;100939.00;;;13.30
58929;BMP180;44713;53.378;10.022;2022-10-16T07:46:04;100940.00;;;13.40
58929;BMP180;44713;53.378;10.022;2022-10-16T07:48:31;100939.00;;;13.50
58929;BMP180;44713;53.378;10.022;2022-10-16T07:51:03;100947.00;;;13.60
58929;BMP180;44713;53.378;10.022;2022-10-16T07:53:28;100945.00;;;13.60
58929;BMP180;44713;53.378;10.022;2022-10-16T07:56:06;100937.00;;;13.70
58929;BMP180;44713;53.378;10.022;2022-10-16T07:58:33;100940.00;;;13.80
58929;BMP180;44713;53.378;10.022;2022-10-16T08:01:03;100944.00;;;13.90
58929;BMP180;44713;53.378;10.022;2022-10-16T08:03:29;100945.00;;;14.00
58929;BMP180;44713;53.378;10.022;2022-10-16T08:05:56;100951.00;;;14.20
58929;BMP180;44713;53.378;10.022;2022-10-16T08:08:22;100954.00;;;14.20
58929;BMP180;44713;53.378;10.022;2022-10-16T08:10:47;100952.00;;;14.30
58929;BMP180;44713;53.378;10.022;2022-10-16T08:13:13;100957.00;;;14.40
58929;BMP180;44713;53.378;10.022;2022-10-16T08:15:41;100956.00;;;14.60
58929;BMP180;44713;53.378;10.022;2022-10-16T08:18:06;100958.00;;;14.60
58929;BMP180;44713;53.378;10.022;2022-10-16T08:20:32;100961.00;;;14.70
58929;BMP180;44713;53.378;10.022;2022-10-16T08:22:59;100969.00;;;14.80
58929;BMP180;44713;53.378;10.022;2022-10-16T08:25:24;100971.00;;;14.90
58929;BMP180;44713;53.378;10.022;2022-10-16T08:27:50;100968.00;;;14.90
58929;BMP180;44713;53.378;10.022;2022-10-16T08:30:17;100968.00;;;14.90
58929;BMP180;44713;53.378;10.022;2022-10-16T08:32:43;100961.00;;;15.00
58929;BMP180;44713;53.378;10.022;2022-10-16T08:35:09;100964.00;;;15.20
58929;BMP180;44713;53.378;10.022;2022-10-16T08:37:36;100976.00;;;15.20
58929;BMP180;44713;53.378;10.022;2022-10-16T08:40:02;100972.00;;;15.30
58929;BMP180;44713;53.378;10.022;2022-10-16T08:45:24;100971.00;;;15.40
58929;BMP180;44713;53.378;10.022;2022-10-16T08:48:14;100981.00;;;15.50
58929;BMP180;44713;53.378;10.022;2022-10-16T08:50:43;100976.00;;;15.50
58929;BMP180;44713;53.378;10.022;2022-10-16T08:53:23;100971.00;;;15.60
58929;BMP180;44713;53.378;10.022;2022-10-16T08:55:51;100975.00;;;15.70
58929;BMP180;44713;53.378;10.022;2022-10-16T08:58:27;100977.00;;;15.60
58929;BMP180;44713;53.378;10.022;2022-10-16T09:01:03;100974.00;;;15.70
58929;BMP180;44713;53.378;10.022;2022-10-16T09:03:42;100979.00;;;15.70
58929;BMP180;44713;53.378;10.022;2022-10-16T09:14:58;100989.00;;;16.00
58929;BMP180;44713;53.378;10.022;2022-10-16T09:20:30;101004.00;;;16.10
58929;BMP180;44713;53.378;10.022;2022-10-16T09:23:10;100993.00;;;16.20
58929;BMP180;44713;53.378;10.022;2022-10-16T09:25:38;100996.00;;;16.30
58929;BMP180;44713;53.378;10.022;2022-10-16T09:28:04;101012.00;;;16.30
58929;BMP180;44713;53.378;10.022;2022-10-16T09:30:30;101014.00;;;16.50
58929;BMP180;44713;53.378;10.022;2022-10-16T09:32:57;101015.00;;;16.60
58929;BMP180;44713;53.378;10.022;2022-10-16T09:35:32;101013.00;;;16.70
58929;BMP180;44713;53.378;10.022;2022-10-16T09:37:58;101005.00;;;16.80
58929;BMP180;44713;53.378;10.022;2022-10-16T09:40:32;101022.00;;;16.90
58929;BMP180;44713;53.378;10.022;2022-10-16T09:45:27;101020.00;;;17.00
58929;BMP180;44713;53.378;10.022;2022-10-16T09:47:53;101030.00;;;17.20
58929;BMP180;44713;53.378;10.022;2022-10-16T09:50:27;101037.00;;;17.30
58929;BMP180;44713;53.378;10.022;2022-10-16T09:53:22;101024.00;;;17.40
58929;BMP180;44713;53.378;10.022;2022-10-16T09:55:52;101033.00;;;17.40
58929;BMP180;44713;53.378;10.022;2022-10-16T09:58:21;101025.00;;;17.50
58929;BMP180;44713;53.378;10.022;2022-10-16T10:00:53;101026.00;;;17.50
58929;BMP180;44713;53.378;10.022;2022-10-16T10:03:33;101033.00;;;17.60
58929;BMP180;44713;53.378;10.022;2022-10-16T10:06:00;101027.00;;;17.70
58929;BMP180;44713;53.378;10.022;2022-10-16T10:08:26;101033.00;;;17.90
58929;BMP180;44713;53.378;10.022;2022-10-16T10:10:51;101042.00;;;17.90
58929;BMP180;44713;53.378;10.022;2022-10-16T10:13:22;101037.00;;;17.90
58929;BMP180;44713;53.378;10.022;2022-10-16T10:15:50;101041.00;;;17.90
58929;BMP180;44713;53.378;10.022;2022-10-16T10:18:18;101035.00;;;18.10
58929;BMP180;44713;53.378;10.022;2022-10-16T10:20:45;101045.00;;;18.20
58929;BMP180;44713;53.378;10.022;2022-10-16T10:23:24;101044.00;;;18.20
58929;BMP180;44713;53.378;10.022;2022-10-16T10:26:07;101042.00;;;18.30
58929;BMP180;44713;53.378;10.022;2022-10-16T10:29:06;101048.00;;;18.40
58929;BMP180;44713;53.378;10.022;2022-10-16T10:31:49;101056.00;;;18.50
58929;BMP180;44713;53.378;10.022;2022-10-16T10:36:49;101063.00;;;18.60
58929;BMP180;44713;53.378;10.022;2022-10-16T10:39:25;101062.00;;;18.80
58929;BMP180;44713;53.378;10.022;2022-10-16T10:42:11;101079.00;;;18.90
58929;BMP180;44713;53.378;10.022;2022-10-16T10:47:17;101080.00;;;18.70
58929;BMP180;44713;53.378;10.022;2022-10-16T10:49:49;101060.00;;;18.70
58929;BMP180;44713;53.378;10.022;2022-10-16T10:58:25;101087.00;;;18.20
58929;BMP180;44713;53.378;10.022;2022-10-16T11:01:02;101085.00;;;18.40
58929;BMP180;44713;53.378;10.022;2022-10-16T11:04:04;101080.00;;;18.70
58929;BMP180;44713;53.378;10.022;2022-10-16T11:06:54;101090.00;;;19.00
58929;BMP180;44713;53.378;10.022;2022-10-16T11:09:24;101085.00;;;19.20
58929;BMP180;44713;53.378;10.022;2022-10-16T11:12:11;101094.00;;;19.30
58929;BMP180;44713;53.378;10.022;2022-10-16T11:14:44;101089.00;;;19.40
58929;BMP180;44713;53.378;10.022;2022-10-16T11:17:19;101094.00;;;19.60
58929;BMP180;44713;53.378;10.022;2022-10-16T11:19:49;101091.00;;;19.60
58929;BMP180;44713;53.378;10.022;2022-10-16T11:22:23;101092.00;;;19.40
58929;BMP180;44713;53.378;10.022;2022-10-16T11:25:04;101090.00;;;19.00
58929;BMP180;44713;53.378;10.022;2022-10-16T11:27:40;101094.00;;;19.00
58929;BMP180;44713;53.378;10.022;2022-10-16T11:30:19;101095.00;;;19.20
58929;BMP180;44713;53.378;10.022;2022-10-16T11:36:00;101103.00;;;19.50
58929;BMP180;44713;53.378;10.022;2022-10-16T11:38:38;101095.00;;;19.80
58929;BMP180;44713;53.378;10.022;2022-10-16T11:41:21;101113.00;;;19.70
58929;BMP180;44713;53.378;10.022;2022-10-16T11:43:58;101114.00;;;19.70
58929;BMP180;44713;53.378;10.022;2022-10-16T11:46:27;101126.00;;;19.70
58929;BMP180;44713;53.378;10.022;2022-10-16T11:49:30;101137.00;;;19.60
58929;BMP180;44713;53.378;10.022;2022-10-16T11:52:12;101139.00;;;19.70
58929;BMP180;44713;53.378;10.022;2022-10-16T11:54:54;101126.00;;;19.70
58929;BMP180;44713;53.378;10.022;2022-10-16T11:57:34;101136.00;;;20.10
58929;BMP180;44713;53.378;10.022;2022-10-16T12:08:25;101146.00;;;19.40
58929;BMP180;44713;53.378;10.022;2022-10-16T12:10:51;101147.00;;;19.20
58929;BMP180;44713;53.378;10.022;2022-10-16T12:13:35;101155.00;;;18.90
58929;BMP180;44713;53.378;10.022;2022-10-16T12:16:21;101179.00;;;18.90
58929;BMP180;44713;53.378;10.022;2022-10-16T12:18:47;101165.00;;;18.80
58929;BMP180;44713;53.378;10.022;2022-10-16T12:21:15;101176.00;;;19.10
58929;BMP180;44713;53.378;10.022;2022-10-16T12:23:53;101178.00;;;19.30
58929;BMP180;44713;53.378;10.022;2022-10-16T12:28:50;101178.00;;;19.00
58929;BMP180;44713;53.378;10.022;2022-10-16T12:31:17;101181.00;;;19.00
58929;BMP180;44713;53.378;10.022;2022-10-16T12:34:00;101183.00;;;19.20
58929;BMP180;44713;53.378;10.022;2022-10-16T12:36:32;101175.00;;;19.40
58929;BMP180;44713;53.378;10.022;2022-10-16T12:38:58;101166.00;;;19.30
58929;BMP180;44713;53.378;10.022;2022-10-16T12:41:32;101171.00;;;19.40
58929;BMP180;44713;53.378;10.022;2022-10-16T12:43:59;101182.00;;;19.50
58929;BMP180;44713;53.378;10.022;2022-10-16T12:49:07;101189.00;;;19.90
58929;BMP180;44713;53.378;10.022;2022-10-16T12:51:42;101199.00;;;20.10
58929;BMP180;44713;53.378;10.022;2022-10-16T12:54:27;101194.00;;;19.90
58929;BMP180;44713;53.378;10.022;2022-10-16T13:00:02;101202.00;;;19.70
58929;BMP180;44713;53.378;10.022;2022-10-16T13:07:56;101220.00;;;19.10
58929;BMP180;44713;53.378;10.022;2022-10-16T13:13:50;101228.00;;;18.80
58929;BMP180;44713;53.378;10.022;2022-10-16T13:16:35;101229.00;;;18.60
58929;BMP180;44713;53.378;10.022;2022-10-16T13:22:21;101241.00;;;18.60
58929;BMP180;44713;53.378;10.022;2022-10-16T13:25:03;101241.00;;;18.60
58929;BMP180;44713;53.378;10.022;2022-10-16T13:27:49;101255.00;;;18.50
58929;BMP180;44713;53.378;10.022;2022-10-16T13:30:23;101256.00;;;18.60
58929;BMP180;44713;53.378;10.022;2022-10-16T13:32:55;101260.00;;;18.50
58929;BMP180;44713;53.378;10.022;2022-10-16T13:35:27;101266.00;;;18.40
58929;BMP180;44713;53.378;10.022;2022-10-16T13:38:06;101273.00;;;18.30
58929;BMP180;44713;53.378;10.022;2022-10-16T13:40:36;101273.00;;;18.20
58929;BMP180;44713;53.378;10.022;2022-10-16T13:43:01;101269.00;;;18.10
58929;BMP180;44713;53.378;10.022;2022-10-16T13:45:27;101277.00;;;18.10
58929;BMP180;44713;53.378;10.022;2022-10-16T13:48:05;101276.00;;;18.40
58929;BMP180;44713;53.378;10.022;2022-10-16T13:50:31;101281.00;;;18.70
58929;BMP180;44713;53.378;10.022;2022-10-16T13:53:04;101280.00;;;18.90
58929;BMP180;44713;53.378;10.022;2022-10-16T13:55:30;101286.00;;;19.10
58929;BMP180;44713;53.378;10.022;2022-10-16T13:58:07;101277.00;;;19.20
58929;BMP180;44713;53.378;10.022;2022-10-16T14:00:33;101276.00;;;19.30
58929;BMP180;44713;53.378;10.022;2022-10-16T14:03:05;101293.00;;;19.30
58929;BMP180;44713;53.378;10.022;2022-10-16T14:05:32;101295.00;;;19.40
58929;BMP180;44713;53.378;10.022;2022-10-16T14:07:57;101308.00;;;19.30
58929;BMP180;44713;53.378;10.022;2022-10-16T14:10:31;101291.00;;;19.10
58929;BMP180;44713;53.378;10.022;2022-10-16T14:13:02;101292.00;;;18.90
58929;BMP180;44713;53.378;10.022;2022-10-16T14:15:30;101295.00;;;18.80
58929;BMP180;44713;53.378;10.022;2022-10-16T14:17:57;101306.00;;;18.60
58929;BMP180;44713;53.378;10.022;2022-10-16T14:20:28;101306.00;;;18.60
58929;BMP180;44713;53.378;10.022;2022-10-16T14:23:34;101304.00;;;18.70
58929;BMP180;44713;53.378;10.022;2022-10-16T14:28:31;101312.00;;;19.00
58929;BMP180;44713;53.378;10.022;2022-10-16T14:30:59;101321.00;;;19.00
58929;BMP180;44713;53.378;10.022;2022-10-16T14:36:14;101326.00;;;19.00
58929;BMP180;44713;53.378;10.022;2022-10-16T14:41:23;101322.00;;;19.00
58929;BMP180;44713;53.378;10.022;2022-10-16T14:43:52;101321.00;;;19.00
58929;BMP180;44713;53.378;10.022;2022-10-16T14:46:20;101335.00;;;19.00
58929;BMP180;44713;53.378;10.022;2022-10-16T14:48:49;101345.00;;;18.90
58929;BMP180;44713;53.378;10.022;2022-10-16T14:51:19;101347.00;;;18.90
58929;BMP180;44713;53.378;10.022;2022-10-16T14:53:46;101338.00;;;18.90
58929;BMP180;44713;53.378;10.022;2022-10-16T14:56:18;101344.00;;;18.90
58929;BMP180;44713;53.378;10.022;2022-10-16T14:58:44;101352.00;;;19.00
58929;BMP180;44713;53.378;10.022;2022-10-16T15:01:10;101350.00;;;18.90
58929;BMP180;44713;53.378;10.022;2022-10-16T15:03:37;101362.00;;;18.80
58929;BMP180;44713;53.378;10.022;2022-10-16T15:06:03;101363.00;;;18.70
58929;BMP180;44713;53.378;10.022;2022-10-16T15:08:28;101363.00;;;18.70
58929;BMP180;44713;53.378;10.022;2022-10-16T15:10:53;101358.00;;;18.70
58929;BMP180;44713;53.378;10.022;2022-10-16T15:13:19;101370.00;;;18.60